createdAt,value
2018-02-10T00:00:29.796Z,23.13
2018-02-10T00:01:29.772Z,23.24
2018-02-10T00:02:29.772Z,22.58
2018-02-10T00:03:29.786Z,23.24
2018-02-10T00:04:29.772Z,23.64
2018-02-10T00:05:29.781Z,23.49
2018-02-10T00:06:29.728Z,23.01
2018-02-10T00:07:29.710Z,23.35
2018-02-10T00:08:29.727Z,23.08
2018-02-10T00:09:29.705Z,23.56
2018-02-10T00:10:29.686Z,23.54
2018-02-10T00:11:29.685Z,22.77
2018-02-10T00:12:29.673Z,23.79
2018-02-10T00:13:29.647Z,23.85
2018-02-10T00:14:29.642Z,22.96
2018-02-10T00:15:29.632Z,22.79
2018-02-10T00:16:29.614Z,23.13
2018-02-10T00:17:29.624Z,23.16
2018-02-10T00:18:29.602Z,23.86
2018-02-10T00:19:29.604Z,23.24
2018-02-10T00:20:29.578Z,23.77
2018-02-10T00:21:29.568Z,23.32
2018-02-10T00:22:29.554Z,23.10
2018-02-10T00:23:29.548Z,22.89
2018-02-10T00:24:29.525Z,23.53
2018-02-10T00:25:29.559Z,22.77
2018-02-10T00:26:29.510Z,22.84
2018-02-10T00:27:29.513Z,23.64
2018-02-10T00:28:29.489Z,24.85
2018-02-10T00:29:29.509Z,23.68
2018-02-10T00:30:29.479Z,22.79
2018-02-10T00:31:29.465Z,23.40
2018-02-10T00:32:29.456Z,22.59
2018-02-10T00:33:29.452Z,23.19
2018-02-10T00:34:29.430Z,22.65
2018-02-10T00:35:29.423Z,23.10
2018-02-10T00:36:29.418Z,24.35
2018-02-10T00:37:29.423Z,23.06
2018-02-10T00:38:29.391Z,22.87
2018-02-10T00:39:29.391Z,23.67
2018-02-10T00:40:29.367Z,23.47
2018-02-10T00:41:29.379Z,22.60
2018-02-10T00:42:29.342Z,23.57
2018-02-10T00:43:29.331Z,22.74
2018-02-10T00:44:29.326Z,23.52
2018-02-10T00:45:29.329Z,23.88
2018-02-10T00:46:29.294Z,22.97
2018-02-10T00:47:29.299Z,23.42
2018-02-10T00:48:29.279Z,23.70
2018-02-10T00:49:29.281Z,23.57
2018-02-10T00:50:29.276Z,23.70
2018-02-10T00:51:29.245Z,22.99
2018-02-10T00:52:29.261Z,22.94
2018-02-10T00:53:29.242Z,24.04
2018-02-10T00:54:29.231Z,23.47
2018-02-10T00:55:29.221Z,23.58
2018-02-10T00:56:29.199Z,23.35
2018-02-10T00:57:29.200Z,22.44
2018-02-10T00:58:29.208Z,23.48
2018-02-10T00:59:29.186Z,22.56
2018-02-10T01:00:29.169Z,23.14
2018-02-10T01:01:29.153Z,22.92
2018-02-10T01:02:29.174Z,23.64
2018-02-10T01:03:29.124Z,23.72
2018-02-10T01:04:29.104Z,23.04
2018-02-10T01:05:29.125Z,23.57
2018-02-10T01:06:29.103Z,23.26
2018-02-10T01:07:29.093Z,22.49
2018-02-10T01:08:29.067Z,23.26
2018-02-10T01:09:29.092Z,24.41
2018-02-10T01:10:29.065Z,23.40
2018-02-10T01:11:29.047Z,23.25
2018-02-10T01:12:29.029Z,24.69
2018-02-10T01:13:29.011Z,24.27
2018-02-10T01:14:29.010Z,23.57
2018-02-10T01:15:28.994Z,23.67
2018-02-10T01:16:28.983Z,24.34
2018-02-10T01:17:28.997Z,23.04
2018-02-10T01:18:29.001Z,23.96
2018-02-10T01:19:28.954Z,24.77
2018-02-10T01:20:28.956Z,24.71
2018-02-10T01:21:28.947Z,24.04
2018-02-10T01:22:28.942Z,25.46
2018-02-10T01:23:28.916Z,25.08
2018-02-10T01:24:28.902Z,24.33
2018-02-10T01:25:28.892Z,24.93
2018-02-10T01:26:28.905Z,25.36
2018-02-10T01:27:28.902Z,25.38
2018-02-10T01:28:28.898Z,25.07
2018-02-10T01:29:28.864Z,24.81
2018-02-10T01:30:28.858Z,24.12
2018-02-10T01:31:28.837Z,26.28
2018-02-10T01:32:28.820Z,26.39
2018-02-10T01:33:28.821Z,25.58
2018-02-10T01:34:28.831Z,25.42
2018-02-10T01:35:28.801Z,25.40
2018-02-10T01:36:28.779Z,24.97
2018-02-10T01:37:28.770Z,24.63
2018-02-10T01:38:28.772Z,26.00
2018-02-10T01:39:28.754Z,25.45
2018-02-10T01:40:28.745Z,25.34
2018-02-10T01:41:28.723Z,25.89
2018-02-10T01:42:28.734Z,26.80
2018-02-10T01:43:28.731Z,25.28
2018-02-10T01:44:28.694Z,27.24
2018-02-10T01:45:28.697Z,26.73
2018-02-10T01:46:28.688Z,26.39
2018-02-10T01:47:28.665Z,25.82
2018-02-10T01:48:28.651Z,26.87
2018-02-10T01:49:28.644Z,26.96
2018-02-10T01:50:28.642Z,26.50
2018-02-10T01:51:28.625Z,26.64
2018-02-10T01:52:28.653Z,27.86
2018-02-10T01:53:28.594Z,26.65
2018-02-10T01:54:28.611Z,27.02
2018-02-10T01:55:28.592Z,27.43
2018-02-10T01:56:28.587Z,27.44
2018-02-10T01:57:28.661Z,27.04
2018-02-10T01:58:28.596Z,27.13
2018-02-10T01:59:28.558Z,27.42
2018-02-10T02:00:28.521Z,27.22
2018-02-10T02:01:28.532Z,26.75
2018-02-10T02:02:28.513Z,27.50
2018-02-10T02:03:28.511Z,27.99
2018-02-10T02:04:28.507Z,27.64
2018-02-10T02:05:28.472Z,27.08
2018-02-10T02:06:28.503Z,28.12
2018-02-10T02:07:28.451Z,27.96
2018-02-10T02:08:28.451Z,28.11
2018-02-10T02:09:28.449Z,28.97
2018-02-10T02:10:28.426Z,28.58
2018-02-10T02:11:28.412Z,27.78
2018-02-10T02:12:28.411Z,28.38
2018-02-10T02:13:28.411Z,28.72
2018-02-10T02:14:28.383Z,29.04
2018-02-10T02:15:28.397Z,28.58
2018-02-10T02:16:28.372Z,29.64
2018-02-10T02:17:28.343Z,30.17
2018-02-10T02:18:28.324Z,28.96
2018-02-10T02:19:28.382Z,29.46
2018-02-10T02:20:28.337Z,29.20
2018-02-10T02:21:28.304Z,30.27
2018-02-10T02:22:28.290Z,29.38
2018-02-10T02:23:28.325Z,28.60
2018-02-10T02:24:28.276Z,28.52
2018-02-10T02:25:28.282Z,29.32
2018-02-10T02:26:28.267Z,30.12
2018-02-10T02:27:28.253Z,30.36
2018-02-10T02:28:28.235Z,29.24
2018-02-10T02:29:28.214Z,29.34
2018-02-10T02:30:28.244Z,30.30
2018-02-10T02:31:28.193Z,29.94
2018-02-10T02:32:28.206Z,29.34
2018-02-10T02:33:28.178Z,29.11
2018-02-10T02:34:28.180Z,29.81
2018-02-10T02:35:28.195Z,30.06
2018-02-10T02:36:29.742Z,30.81
2018-02-10T02:37:28.129Z,30.90
2018-02-10T02:38:28.142Z,30.49
2018-02-10T02:39:28.109Z,29.98
2018-02-10T02:40:28.105Z,30.48
2018-02-10T02:41:28.085Z,29.56
2018-02-10T02:42:28.082Z,30.02
2018-02-10T02:43:28.099Z,29.46
2018-02-10T02:44:28.060Z,29.92
2018-02-10T02:45:28.079Z,30.60
2018-02-10T02:46:28.030Z,30.89
2018-02-10T02:47:28.031Z,30.36
2018-02-10T02:48:28.025Z,30.32
2018-02-10T02:49:28.000Z,29.35
2018-02-10T02:50:27.991Z,29.82
2018-02-10T02:51:28.012Z,30.28
2018-02-10T02:52:27.998Z,29.34
2018-02-10T02:53:28.005Z,29.45
2018-02-10T02:54:27.982Z,30.42
2018-02-10T02:55:27.951Z,30.14
2018-02-10T02:56:27.948Z,29.80
2018-02-10T02:57:27.946Z,29.27
2018-02-10T02:58:27.911Z,29.41
2018-02-10T02:59:27.905Z,29.31
2018-02-10T03:00:27.916Z,29.48
2018-02-10T03:01:27.915Z,29.96
2018-02-10T03:02:27.860Z,29.13
2018-02-10T03:03:27.865Z,29.80
2018-02-10T03:04:27.839Z,31.37
2018-02-10T03:05:27.871Z,30.54
2018-02-10T03:06:27.854Z,29.24
2018-02-10T03:07:27.846Z,30.05
2018-02-10T03:08:27.859Z,29.36
2018-02-10T03:09:27.789Z,30.81
2018-02-10T03:10:27.791Z,29.66
2018-02-10T03:11:27.772Z,30.26
2018-02-10T03:12:27.770Z,30.38
2018-02-10T03:13:27.810Z,30.65
2018-02-10T03:14:27.734Z,30.39
2018-02-10T03:15:27.758Z,30.40
2018-02-10T03:16:27.744Z,30.52
2018-02-10T03:17:27.724Z,33.44
2018-02-10T03:18:27.729Z,34.41
2018-02-10T03:19:27.687Z,35.09
2018-02-10T03:20:27.710Z,31.74
2018-02-10T03:21:27.685Z,32.20
2018-02-10T03:22:27.662Z,31.51
2018-02-10T03:23:27.680Z,30.68
2018-02-10T03:24:27.645Z,30.66
2018-02-10T03:25:27.642Z,29.92
2018-02-10T03:26:27.622Z,30.44
2018-02-10T03:27:27.609Z,30.93
2018-02-10T03:28:27.594Z,30.89
2018-02-10T03:29:27.633Z,29.17
2018-02-10T03:30:27.601Z,29.40
2018-02-10T03:31:27.567Z,29.42
2018-02-10T03:32:27.559Z,28.66
2018-02-10T03:33:27.535Z,29.34
2018-02-10T03:34:27.531Z,29.28
2018-02-10T03:35:27.512Z,28.04
2018-02-10T03:36:27.519Z,28.38
2018-02-10T03:37:27.502Z,29.33
2018-02-10T03:38:27.567Z,30.36
2018-02-10T03:39:27.473Z,30.81
2018-02-10T03:40:27.468Z,30.10
2018-02-10T03:41:27.445Z,29.31
2018-02-10T03:42:27.477Z,29.44
2018-02-10T03:43:27.429Z,28.93
2018-02-10T03:44:27.422Z,28.98
2018-02-10T03:45:27.408Z,29.30
2018-02-10T03:46:27.389Z,29.24
2018-02-10T03:47:27.396Z,30.07
2018-02-10T03:48:27.384Z,30.56
2018-02-10T03:49:27.361Z,30.15
2018-02-10T03:50:27.364Z,29.48
2018-02-10T03:51:27.358Z,29.61
2018-02-10T03:52:27.330Z,30.61
2018-02-10T03:53:27.325Z,34.51
2018-02-10T03:54:27.339Z,31.22
2018-02-10T03:55:27.326Z,29.76
2018-02-10T03:56:27.293Z,29.55
2018-02-10T03:57:27.277Z,31.92
2018-02-10T03:58:27.267Z,29.72
2018-02-10T03:59:27.255Z,32.44
2018-02-10T04:00:27.263Z,30.34
2018-02-10T04:01:27.240Z,29.64
2018-02-10T04:02:27.230Z,29.19
2018-02-10T04:03:27.241Z,29.81
2018-02-10T04:04:27.238Z,29.76
2018-02-10T04:05:27.191Z,28.99
2018-02-10T04:06:27.207Z,30.13
2018-02-10T04:07:27.209Z,30.07
2018-02-10T04:08:27.181Z,29.30
2018-02-10T04:09:27.145Z,28.98
2018-02-10T04:10:27.145Z,30.46
2018-02-10T04:11:27.136Z,29.96
2018-02-10T04:12:27.137Z,30.28
2018-02-10T04:13:27.141Z,29.19
2018-02-10T04:14:27.114Z,29.54
2018-02-10T04:15:27.109Z,30.05
2018-02-10T04:16:27.091Z,29.41
2018-02-10T04:17:27.070Z,28.88
2018-02-10T04:18:27.066Z,28.82
2018-02-10T04:19:27.077Z,29.77
2018-02-10T04:20:27.054Z,28.84
2018-02-10T04:21:27.067Z,28.70
2018-02-10T04:22:27.067Z,28.84
2018-02-10T04:23:27.023Z,28.39
2018-02-10T04:24:27.013Z,28.25
2018-02-10T04:25:27.014Z,29.48
2018-02-10T04:26:27.000Z,28.78
2018-02-10T04:27:26.983Z,29.32
2018-02-10T04:28:26.999Z,29.27
2018-02-10T04:29:26.982Z,29.48
2018-02-10T04:30:26.951Z,29.04
2018-02-10T04:31:26.958Z,29.18
2018-02-10T04:32:26.905Z,29.74
2018-02-10T04:33:26.964Z,28.95
2018-02-10T04:34:26.915Z,28.33
2018-02-10T04:35:26.922Z,27.83
2018-02-10T04:36:26.890Z,30.39
2018-02-10T04:37:26.882Z,30.41
2018-02-10T04:38:26.838Z,29.42
2018-02-10T04:39:26.831Z,29.47
2018-02-10T04:40:26.828Z,28.40
2018-02-10T04:41:26.802Z,29.21
2018-02-10T04:42:26.791Z,30.66
2018-02-10T04:43:26.796Z,29.79
2018-02-10T04:44:26.820Z,29.70
2018-02-10T04:45:26.756Z,29.14
2018-02-10T04:46:26.756Z,28.70
2018-02-10T04:47:26.759Z,29.80
2018-02-10T04:48:26.738Z,29.83
2018-02-10T04:49:26.718Z,30.27
2018-02-10T04:50:26.711Z,30.13
2018-02-10T04:51:26.716Z,31.03
2018-02-10T04:52:26.690Z,30.46
2018-02-10T04:53:26.695Z,29.72
2018-02-10T04:54:26.663Z,29.57
2018-02-10T04:55:26.659Z,31.38
2018-02-10T04:56:26.644Z,30.10
2018-02-10T04:57:26.663Z,30.52
2018-02-10T04:58:26.635Z,30.38
2018-02-10T04:59:26.650Z,31.07
2018-02-10T05:00:26.634Z,31.08
2018-02-10T05:01:26.648Z,30.36
2018-02-10T05:02:26.594Z,30.06
2018-02-10T05:03:26.596Z,31.43
2018-02-10T05:04:26.574Z,32.56
2018-02-10T05:05:26.573Z,32.63
2018-02-10T05:06:26.536Z,33.62
2018-02-10T05:07:26.540Z,33.76
2018-02-10T05:08:26.514Z,33.93
2018-02-10T05:09:26.557Z,34.94
2018-02-10T05:10:26.520Z,35.73
2018-02-10T05:11:26.524Z,35.72
2018-02-10T05:12:26.531Z,33.48
2018-02-10T05:13:26.485Z,35.42
2018-02-10T05:14:26.452Z,37.35
2018-02-10T05:15:26.443Z,37.70
2018-02-10T05:16:26.479Z,36.32
2018-02-10T05:17:26.435Z,36.64
2018-02-10T05:18:26.425Z,36.59
2018-02-10T05:19:26.396Z,37.78
2018-02-10T05:20:26.441Z,38.41
2018-02-10T05:21:26.382Z,37.59
2018-02-10T05:22:26.388Z,38.62
2018-02-10T05:23:26.354Z,37.32
2018-02-10T05:24:26.338Z,38.92
2018-02-10T05:25:26.335Z,39.31
2018-02-10T05:26:26.332Z,38.77
2018-02-10T05:27:26.333Z,39.22
2018-02-10T05:28:26.318Z,38.35
2018-02-10T05:29:26.291Z,38.94
2018-02-10T05:30:26.272Z,39.08
2018-02-10T05:31:26.266Z,38.70
2018-02-10T05:32:26.271Z,38.98
2018-02-10T05:33:26.268Z,39.18
2018-02-10T05:34:26.259Z,38.78
2018-02-10T05:35:26.255Z,38.84
2018-02-10T05:36:26.208Z,37.79
2018-02-10T05:37:26.213Z,37.06
2018-02-10T05:38:26.211Z,37.10
2018-02-10T05:39:26.193Z,37.01
2018-02-10T05:40:26.186Z,37.08
2018-02-10T05:41:26.182Z,37.86
2018-02-10T05:42:26.155Z,36.99
2018-02-10T05:43:26.138Z,34.69
2018-02-10T05:44:26.182Z,34.86
2018-02-10T05:45:26.149Z,35.23
2018-02-10T05:46:26.109Z,34.56
2018-02-10T05:47:26.103Z,35.28
2018-02-10T05:48:26.082Z,35.87
2018-02-10T05:49:26.077Z,35.97
2018-02-10T05:50:26.064Z,36.10
2018-02-10T05:51:26.078Z,35.99
2018-02-10T05:52:26.052Z,36.03
2018-02-10T05:53:26.038Z,34.71
2018-02-10T05:54:26.026Z,33.99
2018-02-10T05:55:26.027Z,34.97
2018-02-10T05:56:26.000Z,35.08
2018-02-10T05:57:25.989Z,35.14
2018-02-10T05:58:25.988Z,34.54
2018-02-10T05:59:25.965Z,34.82
2018-02-10T06:00:25.951Z,34.57
2018-02-10T06:01:25.939Z,35.14
2018-02-10T06:02:25.952Z,34.47
2018-02-10T06:03:25.933Z,34.82
2018-02-10T06:04:25.908Z,34.72
2018-02-10T06:05:25.912Z,33.06
2018-02-10T06:06:25.896Z,33.09
2018-02-10T06:07:25.889Z,33.31
2018-02-10T06:08:25.892Z,33.74
2018-02-10T06:09:25.886Z,33.34
2018-02-10T06:10:25.845Z,33.32
2018-02-10T06:11:25.841Z,32.97
2018-02-10T06:12:25.822Z,33.02
2018-02-10T06:13:25.814Z,34.01
2018-02-10T06:14:25.816Z,34.45
2018-02-10T06:15:25.799Z,34.08
2018-02-10T06:16:25.799Z,33.31
2018-02-10T06:17:25.804Z,33.44
2018-02-10T06:18:25.767Z,33.02
2018-02-10T06:19:25.756Z,32.87
2018-02-10T06:20:25.752Z,33.25
2018-02-10T06:21:25.727Z,32.82
2018-02-10T06:22:25.735Z,32.84
2018-02-10T06:23:25.716Z,32.59
2018-02-10T06:24:25.701Z,33.79
2018-02-10T06:25:25.693Z,33.43
2018-02-10T06:26:25.713Z,33.34
2018-02-10T06:27:25.672Z,33.04
2018-02-10T06:28:25.678Z,32.33
2018-02-10T06:29:25.646Z,33.20
2018-02-10T06:30:25.636Z,32.94
2018-02-10T06:31:25.694Z,34.87
2018-02-10T06:32:25.615Z,34.83
2018-02-10T06:33:25.620Z,36.03
2018-02-10T06:34:25.624Z,35.79
2018-02-10T06:35:25.588Z,36.28
2018-02-10T06:36:25.598Z,35.40
2018-02-10T06:37:25.556Z,33.78
2018-02-10T06:38:25.545Z,34.08
2018-02-10T06:39:25.552Z,33.91
2018-02-10T06:40:25.548Z,33.00
2018-02-10T06:40:37.546Z,1.33
2018-02-10T06:42:25.503Z,32.76
2018-02-10T06:43:25.506Z,32.45
2018-02-10T06:44:25.504Z,32.16
2018-02-10T06:45:25.488Z,32.29
2018-02-10T06:46:25.464Z,31.55
2018-02-10T06:47:25.464Z,31.99
2018-02-10T06:48:25.482Z,32.28
2018-02-10T06:49:25.458Z,31.29
2018-02-10T06:50:25.433Z,31.11
2018-02-10T06:51:25.414Z,31.15
2018-02-10T06:52:25.415Z,30.46
2018-02-10T06:53:25.389Z,30.78
2018-02-10T06:54:25.405Z,31.58
2018-02-10T06:55:25.378Z,31.36
2018-02-10T06:56:25.376Z,32.08
2018-02-10T06:57:25.357Z,30.56
2018-02-10T06:58:25.352Z,30.12
2018-02-10T06:59:25.342Z,30.82
2018-02-10T07:00:25.323Z,31.00
2018-02-10T07:01:25.332Z,30.46
2018-02-10T07:02:25.297Z,30.32
2018-02-10T07:03:25.284Z,30.63
2018-02-10T07:04:25.293Z,29.64
2018-02-10T07:05:25.290Z,31.41
2018-02-10T07:06:25.254Z,30.96
2018-02-10T07:07:25.261Z,31.12
2018-02-10T07:08:25.245Z,31.38
2018-02-10T07:09:25.226Z,30.98
2018-02-10T07:10:25.214Z,32.11
2018-02-10T07:11:25.214Z,31.81
2018-02-10T07:12:25.189Z,31.03
2018-02-10T07:13:25.187Z,30.61
2018-02-10T07:14:25.169Z,30.96
2018-02-10T07:15:25.164Z,30.46
2018-02-10T07:16:25.154Z,30.54
2018-02-10T07:17:25.178Z,29.37
2018-02-10T07:18:25.132Z,28.90
2018-02-10T07:19:25.181Z,30.48
2018-02-10T07:20:25.119Z,30.12
2018-02-10T07:21:25.102Z,29.78
2018-02-10T07:22:25.090Z,29.23
2018-02-10T07:23:25.084Z,30.16
2018-02-10T07:24:25.081Z,30.00
2018-02-10T07:24:37.058Z,1.18
2018-02-10T07:26:25.068Z,30.02
2018-02-10T07:27:25.038Z,30.12
2018-02-10T07:28:25.036Z,29.72
2018-02-10T07:29:25.031Z,29.38
2018-02-10T07:30:25.008Z,29.41
2018-02-10T07:31:25.025Z,28.76
2018-02-10T07:32:24.997Z,29.59
2018-02-10T07:33:24.972Z,29.78
2018-02-10T07:34:25.003Z,31.32
2018-02-10T07:35:24.949Z,30.15
2018-02-10T07:36:24.970Z,30.06
2018-02-10T07:37:24.948Z,29.86
2018-02-10T07:38:24.969Z,29.53
2018-02-10T07:39:24.908Z,29.88
2018-02-10T07:40:24.909Z,30.34
2018-02-10T07:41:24.896Z,30.10
2018-02-10T07:42:24.876Z,29.82
2018-02-10T07:43:24.885Z,29.60
2018-02-10T07:44:25.963Z,30.60
2018-02-10T07:45:25.013Z,29.36
2018-02-10T07:46:25.900Z,29.29
2018-02-10T07:47:24.918Z,28.72
2018-02-10T07:48:24.832Z,27.53
2018-02-10T07:49:24.821Z,27.42
2018-02-10T07:50:24.894Z,27.76
2018-02-10T07:51:24.800Z,27.50
2018-02-10T07:52:26.170Z,27.64
2018-02-10T07:53:25.370Z,26.68
2018-02-10T07:54:26.089Z,26.07
2018-02-10T07:55:24.790Z,26.72
2018-02-10T07:56:24.959Z,26.88
2018-02-10T07:57:24.731Z,26.52
2018-02-10T07:58:24.742Z,25.90
2018-02-10T07:59:24.707Z,24.96
2018-02-10T08:00:24.721Z,25.75
2018-02-10T08:01:24.700Z,26.16
2018-02-10T08:02:24.678Z,25.97
2018-02-10T08:03:24.684Z,26.60
2018-02-10T08:04:24.655Z,24.68
2018-02-10T08:05:24.655Z,25.47
2018-02-10T08:06:24.666Z,25.66
2018-02-10T08:07:24.652Z,25.25
2018-02-10T08:08:24.633Z,25.50
2018-02-10T08:09:24.641Z,25.29
2018-02-10T08:10:24.595Z,24.13
2018-02-10T08:11:24.631Z,25.50
2018-02-10T08:12:24.601Z,29.14
2018-02-10T08:13:24.564Z,28.30
2018-02-10T08:14:24.561Z,26.08
2018-02-10T08:15:24.553Z,27.92
2018-02-10T08:16:24.560Z,25.89
2018-02-10T08:17:24.533Z,24.77
2018-02-10T08:18:24.546Z,24.97
2018-02-10T08:19:24.540Z,24.27
2018-02-10T08:20:24.555Z,23.51
2018-02-10T08:21:24.526Z,23.33
2018-02-10T08:22:24.490Z,24.70
2018-02-10T08:23:24.482Z,24.14
2018-02-10T08:24:24.455Z,25.66
2018-02-10T08:25:24.485Z,24.30
2018-02-10T08:26:24.443Z,22.20
2018-02-10T08:27:24.437Z,21.20
2018-02-10T08:28:24.444Z,22.83
2018-02-10T08:29:24.425Z,23.04
2018-02-10T08:30:24.544Z,24.85
2018-02-10T08:31:24.385Z,25.26
2018-02-10T08:32:24.395Z,25.15
2018-02-10T08:33:24.366Z,24.15
2018-02-10T08:34:24.400Z,23.17
2018-02-10T08:35:24.349Z,23.36
2018-02-10T08:36:24.352Z,23.84
2018-02-10T08:37:24.331Z,22.58
2018-02-10T08:38:24.318Z,22.07
2018-02-10T08:39:24.322Z,22.24
2018-02-10T08:40:24.330Z,21.66
2018-02-10T08:41:24.301Z,21.78
2018-02-10T08:42:24.286Z,23.37
2018-02-10T08:43:24.320Z,24.71
2018-02-10T08:44:24.292Z,24.30
2018-02-10T08:45:24.318Z,22.83
2018-02-10T08:46:24.268Z,21.72
2018-02-10T08:47:24.230Z,22.33
2018-02-10T08:48:24.282Z,22.18
2018-02-10T08:49:24.298Z,24.12
2018-02-10T08:50:24.196Z,22.90
2018-02-10T08:51:24.205Z,24.08
2018-02-10T08:52:24.184Z,23.61
2018-02-10T08:53:24.169Z,23.15
2018-02-10T08:54:24.194Z,22.51
2018-02-10T08:55:24.145Z,21.39
2018-02-10T08:56:24.166Z,21.24
2018-02-10T08:57:24.135Z,23.02
2018-02-10T08:58:24.127Z,22.28
2018-02-10T08:59:24.114Z,22.10
2018-02-10T09:00:24.097Z,22.56
2018-02-10T09:01:24.107Z,22.20
2018-02-10T09:02:24.078Z,24.40
2018-02-10T09:03:24.072Z,25.57
2018-02-10T09:04:24.065Z,24.44
2018-02-10T09:05:24.064Z,25.00
2018-02-10T09:06:24.040Z,23.27
2018-02-10T09:07:24.043Z,22.56
2018-02-10T09:08:24.052Z,22.64
2018-02-10T09:09:24.019Z,22.68
2018-02-10T09:10:24.012Z,22.47
2018-02-10T09:11:24.014Z,22.78
2018-02-10T09:12:24.000Z,21.98
2018-02-10T09:13:23.985Z,21.96
2018-02-10T09:14:24.059Z,21.68
2018-02-10T09:15:23.959Z,21.54
2018-02-10T09:16:23.967Z,22.16
2018-02-10T09:17:23.957Z,21.49
2018-02-10T09:18:24.052Z,21.26
2018-02-10T09:19:23.936Z,22.80
2018-02-10T09:20:23.990Z,21.81
2018-02-10T09:21:24.031Z,21.67
2018-02-10T09:22:23.888Z,21.88
2018-02-10T09:23:23.896Z,20.93
2018-02-10T09:24:23.893Z,21.60
2018-02-10T09:25:23.865Z,20.97
2018-02-10T09:26:23.865Z,21.05
2018-02-10T09:27:23.872Z,21.19
2018-02-10T09:28:23.855Z,21.22
2018-02-10T09:29:23.861Z,21.11
2018-02-10T09:30:23.838Z,20.38
2018-02-10T09:31:23.825Z,19.95
2018-02-10T09:32:23.802Z,20.51
2018-02-10T09:33:23.807Z,21.35
2018-02-10T09:34:23.799Z,20.50
2018-02-10T09:35:23.798Z,20.69
2018-02-10T09:36:23.796Z,20.42
2018-02-10T09:37:23.772Z,20.69
2018-02-10T09:38:23.753Z,19.17
2018-02-10T09:39:23.747Z,19.58
2018-02-10T09:40:23.741Z,19.43
2018-02-10T09:41:23.727Z,19.04
2018-02-10T09:42:23.728Z,19.58
2018-02-10T09:43:23.702Z,19.53
2018-02-10T09:44:23.702Z,19.29
2018-02-10T09:45:23.690Z,18.62
2018-02-10T09:46:23.682Z,19.04
2018-02-10T09:47:23.684Z,19.21
2018-02-10T09:48:23.702Z,18.37
2018-02-10T09:49:23.659Z,18.11
2018-02-10T09:50:23.692Z,18.42
2018-02-10T09:51:23.663Z,18.50
2018-02-10T09:52:23.643Z,18.06
2018-02-10T09:53:23.617Z,17.82
2018-02-10T09:54:23.657Z,17.86
2018-02-10T09:55:23.612Z,18.50
2018-02-10T09:56:23.594Z,17.98
2018-02-10T09:57:23.632Z,17.73
2018-02-10T09:58:23.578Z,17.90
2018-02-10T09:59:23.590Z,17.26
2018-02-10T10:00:23.565Z,17.29
2018-02-10T10:01:23.553Z,17.32
2018-02-10T10:02:23.542Z,17.30
2018-02-10T10:03:23.560Z,17.77
2018-02-10T10:04:23.574Z,17.40
2018-02-10T10:05:23.534Z,18.26
2018-02-10T10:06:23.507Z,18.24
2018-02-10T10:07:23.508Z,18.26
2018-02-10T10:08:23.511Z,18.58
2018-02-10T10:09:23.495Z,18.59
2018-02-10T10:10:23.493Z,18.58
2018-02-10T10:11:23.506Z,18.95
2018-02-10T10:12:23.474Z,19.01
2018-02-10T10:13:23.467Z,19.14
2018-02-10T10:14:23.466Z,19.42
2018-02-10T10:15:23.446Z,18.81
2018-02-10T10:16:23.440Z,18.82
2018-02-10T10:17:23.446Z,19.10
2018-02-10T10:18:23.446Z,18.94
2018-02-10T10:19:23.395Z,19.41
2018-02-10T10:20:23.402Z,18.52
2018-02-10T10:21:23.388Z,18.16
2018-02-10T10:22:23.420Z,18.94
2018-02-10T10:23:23.370Z,18.16
2018-02-10T10:24:23.407Z,17.58
2018-02-10T10:25:23.352Z,17.74
2018-02-10T10:26:23.386Z,17.63
2018-02-10T10:27:23.339Z,17.08
2018-02-10T10:28:23.332Z,17.28
2018-02-10T10:29:23.330Z,17.46
2018-02-10T10:30:23.330Z,16.69
2018-02-10T10:31:23.328Z,17.18
2018-02-10T10:32:23.301Z,16.45
2018-02-10T10:33:23.296Z,15.55
2018-02-10T10:34:23.281Z,15.82
2018-02-10T10:35:23.274Z,14.87
2018-02-10T10:36:23.274Z,14.36
2018-02-10T10:37:23.303Z,14.78
2018-02-10T10:38:23.293Z,13.38
2018-02-10T10:39:23.285Z,13.10
2018-02-10T10:40:23.240Z,13.18
2018-02-10T10:41:23.242Z,12.87
2018-02-10T10:42:23.251Z,13.25
2018-02-10T10:43:23.226Z,12.89
2018-02-10T10:44:23.209Z,12.33
2018-02-10T10:45:23.223Z,11.79
2018-02-10T10:46:23.197Z,12.19
2018-02-10T10:47:23.200Z,12.00
2018-02-10T10:48:23.177Z,11.05
2018-02-10T10:49:23.174Z,10.58
2018-02-10T10:50:23.198Z,10.08
2018-02-10T10:51:23.202Z,9.93
2018-02-10T10:52:23.156Z,10.02
2018-02-10T10:53:23.199Z,10.41
2018-02-10T10:54:23.134Z,10.45
2018-02-10T10:55:23.144Z,11.11
2018-02-10T10:56:23.172Z,10.80
2018-02-10T10:57:23.179Z,10.52
2018-02-10T10:58:23.138Z,9.98
2018-02-10T10:59:23.119Z,10.28
2018-02-10T11:00:23.141Z,8.93
2018-02-10T11:01:23.124Z,9.51
2018-02-10T11:02:23.082Z,9.80
2018-02-10T11:03:23.101Z,9.63
2018-02-10T11:04:23.083Z,10.38
2018-02-10T11:05:23.087Z,9.75
2018-02-10T11:06:23.122Z,9.69
2018-02-10T11:07:23.060Z,9.65
2018-02-10T11:08:23.044Z,9.78
2018-02-10T11:09:23.052Z,9.40
2018-02-10T11:10:23.072Z,9.23
2018-02-10T11:11:23.016Z,9.19
2018-02-10T11:12:23.032Z,8.02
2018-02-10T11:13:23.018Z,8.37
2018-02-10T11:14:23.034Z,8.74
2018-02-10T11:15:22.995Z,8.73
2018-02-10T11:16:23.014Z,8.20
2018-02-10T11:17:23.027Z,7.98
2018-02-10T11:18:22.986Z,8.04
2018-02-10T11:19:22.980Z,7.77
2018-02-10T11:20:22.988Z,7.34
2018-02-10T11:21:22.963Z,7.21
2018-02-10T11:22:22.951Z,7.68
2018-02-10T11:23:22.956Z,7.48
2018-02-10T11:24:22.962Z,7.78
2018-02-10T11:25:22.966Z,7.82
2018-02-10T11:26:22.985Z,7.27
2018-02-10T11:27:22.958Z,6.70
2018-02-10T11:28:22.980Z,6.96
2018-02-10T11:29:22.923Z,7.04
2018-02-10T11:30:22.904Z,6.92
2018-02-10T11:31:22.884Z,6.82
2018-02-10T11:32:22.891Z,6.97
2018-02-10T11:33:22.891Z,6.89
2018-02-10T11:34:22.861Z,7.21
2018-02-10T11:35:22.892Z,7.46
2018-02-10T11:36:22.857Z,6.98
2018-02-10T11:37:22.861Z,6.57
2018-02-10T11:38:22.848Z,6.80
2018-02-10T11:39:22.827Z,7.06
2018-02-10T11:40:22.833Z,7.00
2018-02-10T11:41:22.819Z,7.38
2018-02-10T11:42:22.888Z,6.95
2018-02-10T11:43:22.830Z,6.85
2018-02-10T11:44:22.810Z,6.62
2018-02-10T11:45:22.814Z,6.99
2018-02-10T11:46:22.782Z,6.73
2018-02-10T11:47:22.805Z,7.12
2018-02-10T11:48:22.788Z,6.96
2018-02-10T11:49:22.776Z,7.06
2018-02-10T11:50:22.751Z,6.63
2018-02-10T11:51:22.742Z,7.08
2018-02-10T11:52:22.741Z,6.86
2018-02-10T11:53:22.742Z,6.66
2018-02-10T11:54:22.721Z,6.88
2018-02-10T11:55:22.707Z,6.79
2018-02-10T11:56:22.719Z,7.42
2018-02-10T11:57:22.705Z,7.24
2018-02-10T11:58:22.707Z,6.82
2018-02-10T11:59:22.697Z,6.95
2018-02-10T12:00:22.717Z,7.20
2018-02-10T12:01:22.690Z,7.83
2018-02-10T12:02:22.674Z,6.99
2018-02-10T12:03:22.663Z,7.09
2018-02-10T12:04:22.651Z,7.55
2018-02-10T12:05:22.645Z,6.92
2018-02-10T12:06:22.647Z,7.37
2018-02-10T12:07:22.630Z,7.18
2018-02-10T12:08:22.630Z,7.03
2018-02-10T12:09:22.628Z,7.42
2018-02-10T12:10:22.622Z,7.49
2018-02-10T12:11:22.592Z,7.40
2018-02-10T12:12:22.594Z,6.86
2018-02-10T12:13:22.601Z,7.22
2018-02-10T12:14:22.601Z,7.03
2018-02-10T12:15:22.599Z,7.26
2018-02-10T12:16:22.584Z,7.41
2018-02-10T12:17:22.566Z,7.26
2018-02-10T12:18:22.547Z,7.28
2018-02-10T12:19:22.562Z,7.35
2018-02-10T12:20:22.546Z,7.46
2018-02-10T12:21:22.551Z,7.30
2018-02-10T12:22:22.521Z,7.21
2018-02-10T12:23:22.510Z,7.77
2018-02-10T12:24:22.516Z,8.09
2018-02-10T12:25:22.527Z,8.04
2018-02-10T12:26:22.524Z,7.36
2018-02-10T12:27:22.505Z,7.74
2018-02-10T12:28:22.519Z,7.86
2018-02-10T12:29:22.502Z,7.66
2018-02-10T12:30:22.466Z,8.10
2018-02-10T12:31:22.460Z,7.46
2018-02-10T12:32:22.465Z,7.40
2018-02-10T12:33:22.493Z,7.51
2018-02-10T12:34:22.458Z,7.68
2018-02-10T12:35:22.444Z,7.68
2018-02-10T12:36:22.412Z,7.52
2018-02-10T12:37:22.421Z,7.82
2018-02-10T12:38:22.460Z,8.08
2018-02-10T12:39:22.407Z,8.13
2018-02-10T12:40:23.909Z,8.26
2018-02-10T12:41:22.424Z,8.16
2018-02-10T12:42:23.989Z,7.62
2018-02-10T12:43:23.897Z,7.96
2018-02-10T12:44:22.454Z,8.08
2018-02-10T12:45:25.927Z,7.70
2018-02-10T12:46:23.909Z,7.98
2018-02-10T12:47:22.335Z,7.32
2018-02-10T12:48:22.336Z,7.32
2018-02-10T12:49:22.378Z,7.54
2018-02-10T12:50:22.317Z,7.33
2018-02-10T12:51:22.317Z,7.12
2018-02-10T12:52:22.312Z,7.33
2018-02-10T12:53:22.286Z,7.34
2018-02-10T12:54:22.313Z,7.02
2018-02-10T12:55:22.291Z,6.81
2018-02-10T12:56:22.387Z,6.87